sensor_id;sensor_type;location;lat;lon;timestamp;P1;durP1;ratioP1;P2;durP2;ratioP2
37895;SDS011;23733;53.254;10.430;2023-12-20T00:00:39;8.67;;;2.10;;
37895;SDS011;23733;53.254;10.430;2023-12-20T00:03:05;7.37;;;2.20;;
37895;SDS011;23733;53.254;10.430;2023-12-20T00:05:31;11.07;;;2.23;;
37895;SDS011;23733;53.254;10.430;2023-12-20T00:07:58;6.37;;;2.00;;
37895;SDS011;23733;53.254;10.430;2023-12-20T00:10:25;8.97;;;2.07;;
37895;SDS011;23733;53.254;10.430;2023-12-20T00:12:51;9.23;;;2.23;;
37895;SDS011;23733;53.254;10.430;2023-12-20T00:15:17;8.63;;;1.90;;
37895;SDS011;23733;53.254;10.430;2023-12-20T00:17:43;9.20;;;1.77;;
37895;SDS011;23733;53.254;10.430;2023-12-20T00:20:10;13.10;;;2.30;;
37895;SDS011;23733;53.254;10.430;2023-12-20T00:22:36;11.33;;;2.30;;
37895;SDS011;23733;53.254;10.430;2023-12-20T00:25:02;7.23;;;1.87;;
37895;SDS011;23733;53.254;10.430;2023-12-20T00:27:29;7.27;;;2.07;;
37895;SDS011;23733;53.254;10.430;2023-12-20T00:29:55;9.27;;;2.17;;
37895;SDS011;23733;53.254;10.430;2023-12-20T00:32:21;8.00;;;2.20;;
37895;SDS011;23733;53.254;10.430;2023-12-20T00:34:48;9.97;;;2.07;;
37895;SDS011;23733;53.254;10.430;2023-12-20T00:37:14;8.27;;;2.10;;
37895;SDS011;23733;53.254;10.430;2023-12-20T00:39:40;11.70;;;2.23;;
37895;SDS011;23733;53.254;10.430;2023-12-20T00:42:07;11.83;;;2.20;;
37895;SDS011;23733;53.254;10.430;2023-12-20T00:44:33;10.37;;;2.10;;
37895;SDS011;23733;53.254;10.430;2023-12-20T00:46:59;13.67;;;2.40;;
37895;SDS011;23733;53.254;10.430;2023-12-20T00:49:26;11.97;;;1.87;;
37895;SDS011;23733;53.254;10.430;2023-12-20T00:51:52;11.77;;;2.00;;
37895;SDS011;23733;53.254;10.430;2023-12-20T00:54:19;12.73;;;2.20;;
37895;SDS011;23733;53.254;10.430;2023-12-20T00:56:45;14.43;;;2.70;;
37895;SDS011;23733;53.254;10.430;2023-12-20T00:59:11;12.00;;;2.40;;
37895;SDS011;23733;53.254;10.430;2023-12-20T01:01:38;10.93;;;1.90;;
37895;SDS011;23733;53.254;10.430;2023-12-20T01:04:04;21.00;;;3.50;;
37895;SDS011;23733;53.254;10.430;2023-12-20T01:06:30;9.23;;;2.37;;
37895;SDS011;23733;53.254;10.430;2023-12-20T01:08:56;7.70;;;2.13;;
37895;SDS011;23733;53.254;10.430;2023-12-20T01:11:23;10.40;;;2.23;;
37895;SDS011;23733;53.254;10.430;2023-12-20T01:13:49;9.23;;;1.80;;
37895;SDS011;23733;53.254;10.430;2023-12-20T01:16:15;8.07;;;2.37;;
37895;SDS011;23733;53.254;10.430;2023-12-20T01:18:42;12.10;;;2.17;;
37895;SDS011;23733;53.254;10.430;2023-12-20T01:21:08;9.83;;;2.37;;
37895;SDS011;23733;53.254;10.430;2023-12-20T01:23:34;17.60;;;2.33;;
37895;SDS011;23733;53.254;10.430;2023-12-20T01:26:00;13.73;;;2.33;;
37895;SDS011;23733;53.254;10.430;2023-12-20T01:28:27;8.87;;;2.00;;
37895;SDS011;23733;53.254;10.430;2023-12-20T01:30:54;9.67;;;1.73;;
37895;SDS011;23733;53.254;10.430;2023-12-20T01:33:21;10.57;;;1.90;;
37895;SDS011;23733;53.254;10.430;2023-12-20T01:35:48;11.37;;;1.80;;
37895;SDS011;23733;53.254;10.430;2023-12-20T01:38:14;11.67;;;2.20;;
37895;SDS011;23733;53.254;10.430;2023-12-20T01:40:44;11.47;;;1.97;;
37895;SDS011;23733;53.254;10.430;2023-12-20T01:43:10;13.03;;;1.90;;
37895;SDS011;23733;53.254;10.430;2023-12-20T01:45:37;11.57;;;1.93;;
37895;SDS011;23733;53.254;10.430;2023-12-20T01:48:04;15.43;;;2.93;;
37895;SDS011;23733;53.254;10.430;2023-12-20T01:50:31;6.43;;;1.73;;
37895;SDS011;23733;53.254;10.430;2023-12-20T01:52:58;10.97;;;1.63;;
37895;SDS011;23733;53.254;10.430;2023-12-20T01:55:26;8.33;;;1.70;;
37895;SDS011;23733;53.254;10.430;2023-12-20T01:57:53;13.60;;;2.10;;
37895;SDS011;23733;53.254;10.430;2023-12-20T02:00:20;12.90;;;2.23;;
37895;SDS011;23733;53.254;10.430;2023-12-20T02:02:48;8.30;;;2.10;;
37895;SDS011;23733;53.254;10.430;2023-12-20T02:05:15;11.13;;;2.33;;
37895;SDS011;23733;53.254;10.430;2023-12-20T02:07:42;9.83;;;1.97;;
37895;SDS011;23733;53.254;10.430;2023-12-20T02:10:08;8.47;;;1.67;;
37895;SDS011;23733;53.254;10.430;2023-12-20T02:12:35;11.97;;;2.03;;
37895;SDS011;23733;53.254;10.430;2023-12-20T02:15:01;11.00;;;2.43;;
37895;SDS011;23733;53.254;10.430;2023-12-20T02:17:27;12.27;;;1.90;;
37895;SDS011;23733;53.254;10.430;2023-12-20T02:19:54;11.23;;;2.10;;
37895;SDS011;23733;53.254;10.430;2023-12-20T02:22:20;10.80;;;1.93;;
37895;SDS011;23733;53.254;10.430;2023-12-20T02:24:46;10.00;;;1.70;;
37895;SDS011;23733;53.254;10.430;2023-12-20T02:27:12;10.90;;;2.30;;
37895;SDS011;23733;53.254;10.430;2023-12-20T02:29:39;12.03;;;2.23;;
37895;SDS011;23733;53.254;10.430;2023-12-20T02:32:07;13.40;;;2.47;;
37895;SDS011;23733;53.254;10.430;2023-12-20T02:34:33;8.30;;;2.47;;
37895;SDS011;23733;53.254;10.430;2023-12-20T02:36:59;9.70;;;2.20;;
37895;SDS011;23733;53.254;10.430;2023-12-20T02:39:26;20.53;;;3.17;;
37895;SDS011;23733;53.254;10.430;2023-12-20T02:41:52;12.83;;;3.10;;
37895;SDS011;23733;53.254;10.430;2023-12-20T02:44:18;11.33;;;3.10;;
37895;SDS011;23733;53.254;10.430;2023-12-20T02:46:45;11.77;;;2.90;;
37895;SDS011;23733;53.254;10.430;2023-12-20T02:49:11;10.20;;;2.90;;
37895;SDS011;23733;53.254;10.430;2023-12-20T02:51:37;17.73;;;3.70;;
37895;SDS011;23733;53.254;10.430;2023-12-20T02:54:04;15.43;;;3.13;;
37895;SDS011;23733;53.254;10.430;2023-12-20T02:56:31;12.47;;;2.83;;
37895;SDS011;23733;53.254;10.430;2023-12-20T02:58:58;14.20;;;3.13;;
37895;SDS011;23733;53.254;10.430;2023-12-20T03:01:24;10.93;;;3.10;;
37895;SDS011;23733;53.254;10.430;2023-12-20T03:03:50;10.53;;;3.20;;
37895;SDS011;23733;53.254;10.430;2023-12-20T03:06:17;10.40;;;3.20;;
37895;SDS011;23733;53.254;10.430;2023-12-20T03:08:44;10.77;;;3.23;;
37895;SDS011;23733;53.254;10.430;2023-12-20T03:11:10;11.73;;;3.10;;
37895;SDS011;23733;53.254;10.430;2023-12-20T03:13:37;10.67;;;3.20;;
37895;SDS011;23733;53.254;10.430;2023-12-20T03:16:10;12.33;;;3.67;;
37895;SDS011;23733;53.254;10.430;2023-12-20T03:18:38;11.80;;;3.53;;
37895;SDS011;23733;53.254;10.430;2023-12-20T03:21:05;18.90;;;4.50;;
37895;SDS011;23733;53.254;10.430;2023-12-20T03:23:31;12.80;;;3.73;;
37895;SDS011;23733;53.254;10.430;2023-12-20T03:25:59;9.47;;;3.17;;
37895;SDS011;23733;53.254;10.430;2023-12-20T03:28:26;15.73;;;3.40;;
37895;SDS011;23733;53.254;10.430;2023-12-20T03:30:52;10.97;;;2.93;;
37895;SDS011;23733;53.254;10.430;2023-12-20T03:33:19;11.07;;;2.93;;
37895;SDS011;23733;53.254;10.430;2023-12-20T03:35:45;7.97;;;2.53;;
37895;SDS011;23733;53.254;10.430;2023-12-20T03:38:12;11.37;;;3.10;;
37895;SDS011;23733;53.254;10.430;2023-12-20T03:40:38;17.50;;;3.00;;
37895;SDS011;23733;53.254;10.430;2023-12-20T03:43:04;12.43;;;2.80;;
37895;SDS011;23733;53.254;10.430;2023-12-20T03:45:31;14.70;;;3.20;;
37895;SDS011;23733;53.254;10.430;2023-12-20T03:47:57;9.27;;;2.47;;
37895;SDS011;23733;53.254;10.430;2023-12-20T03:50:25;12.20;;;2.53;;
37895;SDS011;23733;53.254;10.430;2023-12-20T03:52:51;14.67;;;2.90;;
37895;SDS011;23733;53.254;10.430;2023-12-20T03:55:18;8.43;;;2.53;;
37895;SDS011;23733;53.254;10.430;2023-12-20T03:57:44;8.93;;;2.30;;
37895;SDS011;23733;53.254;10.430;2023-12-20T04:00:11;9.50;;;2.10;;
37895;SDS011;23733;53.254;10.430;2023-12-20T04:02:37;9.80;;;2.60;;
37895;SDS011;23733;53.254;10.430;2023-12-20T04:05:04;9.90;;;2.37;;
37895;SDS011;23733;53.254;10.430;2023-12-20T04:07:30;10.67;;;2.50;;
37895;SDS011;23733;53.254;10.430;2023-12-20T04:09:57;7.77;;;2.00;;
37895;SDS011;23733;53.254;10.430;2023-12-20T04:12:23;7.13;;;1.83;;
37895;SDS011;23733;53.254;10.430;2023-12-20T04:14:49;8.30;;;2.00;;
37895;SDS011;23733;53.254;10.430;2023-12-20T04:17:16;7.53;;;2.13;;
37895;SDS011;23733;53.254;10.430;2023-12-20T04:19:42;7.23;;;1.60;;
37895;SDS011;23733;53.254;10.430;2023-12-20T04:22:08;17.63;;;2.67;;
37895;SDS011;23733;53.254;10.430;2023-12-20T04:24:35;9.90;;;2.53;;
37895;SDS011;23733;53.254;10.430;2023-12-20T04:27:01;10.10;;;2.83;;
37895;SDS011;23733;53.254;10.430;2023-12-20T04:29:28;6.73;;;1.93;;
37895;SDS011;23733;53.254;10.430;2023-12-20T04:31:54;7.33;;;2.47;;
37895;SDS011;23733;53.254;10.430;2023-12-20T04:34:21;12.03;;;2.60;;
37895;SDS011;23733;53.254;10.430;2023-12-20T04:36:48;7.67;;;2.13;;
37895;SDS011;23733;53.254;10.430;2023-12-20T04:39:14;17.63;;;3.33;;
37895;SDS011;23733;53.254;10.430;2023-12-20T04:41:40;11.67;;;3.13;;
37895;SDS011;23733;53.254;10.430;2023-12-20T04:44:07;15.93;;;3.20;;
37895;SDS011;23733;53.254;10.430;2023-12-20T04:46:33;11.50;;;2.20;;
37895;SDS011;23733;53.254;10.430;2023-12-20T04:48:59;7.87;;;2.33;;
37895;SDS011;23733;53.254;10.430;2023-12-20T04:51:26;15.83;;;2.80;;
37895;SDS011;23733;53.254;10.430;2023-12-20T04:53:52;10.17;;;2.50;;
37895;SDS011;23733;53.254;10.430;2023-12-20T04:56:18;5.13;;;2.40;;
37895;SDS011;23733;53.254;10.430;2023-12-20T04:58:45;9.30;;;2.50;;
37895;SDS011;23733;53.254;10.430;2023-12-20T05:01:12;13.10;;;2.70;;
37895;SDS011;23733;53.254;10.430;2023-12-20T05:03:38;12.73;;;3.07;;
37895;SDS011;23733;53.254;10.430;2023-12-20T05:06:05;12.50;;;2.70;;
37895;SDS011;23733;53.254;10.430;2023-12-20T05:08:31;7.50;;;2.33;;
37895;SDS011;23733;53.254;10.430;2023-12-20T05:10:57;15.10;;;3.17;;
37895;SDS011;23733;53.254;10.430;2023-12-20T05:13:24;13.17;;;3.07;;
37895;SDS011;23733;53.254;10.430;2023-12-20T05:15:50;13.03;;;2.73;;
37895;SDS011;23733;53.254;10.430;2023-12-20T05:18:16;11.10;;;3.10;;
37895;SDS011;23733;53.254;10.430;2023-12-20T05:20:42;10.70;;;2.60;;
37895;SDS011;23733;53.254;10.430;2023-12-20T05:23:09;13.83;;;3.60;;
37895;SDS011;23733;53.254;10.430;2023-12-20T05:25:36;16.77;;;3.27;;
37895;SDS011;23733;53.254;10.430;2023-12-20T05:28:03;15.20;;;3.37;;
37895;SDS011;23733;53.254;10.430;2023-12-20T05:30:29;11.10;;;2.83;;
37895;SDS011;23733;53.254;10.430;2023-12-20T05:32:55;13.87;;;2.93;;
37895;SDS011;23733;53.254;10.430;2023-12-20T05:35:22;15.37;;;3.30;;
37895;SDS011;23733;53.254;10.430;2023-12-20T05:37:49;13.37;;;2.67;;
37895;SDS011;23733;53.254;10.430;2023-12-20T05:40:17;12.27;;;2.63;;
37895;SDS011;23733;53.254;10.430;2023-12-20T05:42:44;14.00;;;2.80;;
37895;SDS011;23733;53.254;10.430;2023-12-20T05:45:11;13.67;;;3.00;;
37895;SDS011;23733;53.254;10.430;2023-12-20T05:47:37;17.90;;;4.10;;
37895;SDS011;23733;53.254;10.430;2023-12-20T05:50:03;11.07;;;3.43;;
37895;SDS011;23733;53.254;10.430;2023-12-20T05:52:30;9.20;;;2.70;;
37895;SDS011;23733;53.254;10.430;2023-12-20T05:54:56;15.40;;;3.27;;
37895;SDS011;23733;53.254;10.430;2023-12-20T05:57:26;16.20;;;3.73;;
37895;SDS011;23733;53.254;10.430;2023-12-20T05:59:53;11.50;;;2.90;;
37895;SDS011;23733;53.254;10.430;2023-12-20T06:02:20;10.53;;;3.40;;
37895;SDS011;23733;53.254;10.430;2023-12-20T06:04:47;12.23;;;2.50;;
37895;SDS011;23733;53.254;10.430;2023-12-20T06:07:13;15.33;;;2.67;;
37895;SDS011;23733;53.254;10.430;2023-12-20T06:09:39;11.80;;;2.83;;
37895;SDS011;23733;53.254;10.430;2023-12-20T06:12:06;11.23;;;2.97;;
37895;SDS011;23733;53.254;10.430;2023-12-20T06:14:33;11.53;;;3.27;;
37895;SDS011;23733;53.254;10.430;2023-12-20T06:17:00;18.93;;;4.17;;
37895;SDS011;23733;53.254;10.430;2023-12-20T06:19:27;13.70;;;3.37;;
37895;SDS011;23733;53.254;10.430;2023-12-20T06:21:53;10.27;;;2.97;;
37895;SDS011;23733;53.254;10.430;2023-12-20T06:24:19;13.43;;;3.33;;
37895;SDS011;23733;53.254;10.430;2023-12-20T06:26:46;11.43;;;3.20;;
37895;SDS011;23733;53.254;10.430;2023-12-20T06:29:13;15.03;;;4.20;;
37895;SDS011;23733;53.254;10.430;2023-12-20T06:31:39;15.20;;;3.90;;
37895;SDS011;23733;53.254;10.430;2023-12-20T06:34:05;14.80;;;3.60;;
37895;SDS011;23733;53.254;10.430;2023-12-20T06:36:32;11.30;;;3.73;;
37895;SDS011;23733;53.254;10.430;2023-12-20T06:38:58;9.67;;;3.40;;
37895;SDS011;23733;53.254;10.430;2023-12-20T06:41:24;13.37;;;3.60;;
37895;SDS011;23733;53.254;10.430;2023-12-20T06:43:51;15.43;;;3.80;;
37895;SDS011;23733;53.254;10.430;2023-12-20T06:46:18;13.37;;;4.00;;
37895;SDS011;23733;53.254;10.430;2023-12-20T06:48:44;10.73;;;3.13;;
37895;SDS011;23733;53.254;10.430;2023-12-20T06:51:12;14.80;;;3.80;;
37895;SDS011;23733;53.254;10.430;2023-12-20T06:53:38;13.63;;;4.10;;
37895;SDS011;23733;53.254;10.430;2023-12-20T06:56:05;14.77;;;3.43;;
37895;SDS011;23733;53.254;10.430;2023-12-20T06:58:32;15.90;;;3.40;;
37895;SDS011;23733;53.254;10.430;2023-12-20T07:00:59;16.87;;;3.43;;
37895;SDS011;23733;53.254;10.430;2023-12-20T07:03:25;14.67;;;3.90;;
37895;SDS011;23733;53.254;10.430;2023-12-20T07:05:51;10.73;;;2.77;;
37895;SDS011;23733;53.254;10.430;2023-12-20T07:08:18;16.53;;;3.53;;
37895;SDS011;23733;53.254;10.430;2023-12-20T07:10:44;10.83;;;3.67;;
37895;SDS011;23733;53.254;10.430;2023-12-20T07:13:11;15.33;;;3.47;;
37895;SDS011;23733;53.254;10.430;2023-12-20T07:15:37;9.77;;;2.70;;
37895;SDS011;23733;53.254;10.430;2023-12-20T07:18:04;13.00;;;2.90;;
37895;SDS011;23733;53.254;10.430;2023-12-20T07:20:31;15.30;;;3.40;;
37895;SDS011;23733;53.254;10.430;2023-12-20T07:22:58;11.07;;;3.23;;
37895;SDS011;23733;53.254;10.430;2023-12-20T07:25:24;11.67;;;3.10;;
37895;SDS011;23733;53.254;10.430;2023-12-20T07:27:50;16.00;;;3.47;;
37895;SDS011;23733;53.254;10.430;2023-12-20T07:30:17;14.23;;;3.30;;
37895;SDS011;23733;53.254;10.430;2023-12-20T07:32:43;16.87;;;3.00;;
37895;SDS011;23733;53.254;10.430;2023-12-20T07:35:09;13.83;;;3.03;;
37895;SDS011;23733;53.254;10.430;2023-12-20T07:37:36;14.93;;;2.70;;
37895;SDS011;23733;53.254;10.430;2023-12-20T07:40:02;11.10;;;2.90;;
37895;SDS011;23733;53.254;10.430;2023-12-20T07:42:29;16.60;;;3.57;;
37895;SDS011;23733;53.254;10.430;2023-12-20T07:44:58;16.50;;;3.20;;
37895;SDS011;23733;53.254;10.430;2023-12-20T07:47:24;11.77;;;2.80;;
37895;SDS011;23733;53.254;10.430;2023-12-20T07:49:51;9.67;;;2.90;;
37895;SDS011;23733;53.254;10.430;2023-12-20T07:52:18;13.27;;;3.07;;
37895;SDS011;23733;53.254;10.430;2023-12-20T07:54:44;13.33;;;2.93;;
37895;SDS011;23733;53.254;10.430;2023-12-20T07:57:11;17.90;;;3.80;;
37895;SDS011;23733;53.254;10.430;2023-12-20T07:59:37;10.33;;;2.60;;
37895;SDS011;23733;53.254;10.430;2023-12-20T08:02:04;11.47;;;2.80;;
37895;SDS011;23733;53.254;10.430;2023-12-20T08:04:30;14.67;;;3.00;;
37895;SDS011;23733;53.254;10.430;2023-12-20T08:06:56;18.37;;;3.27;;
37895;SDS011;23733;53.254;10.430;2023-12-20T08:09:23;15.43;;;2.73;;
37895;SDS011;23733;53.254;10.430;2023-12-20T08:11:49;19.70;;;3.80;;
37895;SDS011;23733;53.254;10.430;2023-12-20T08:14:15;15.67;;;3.33;;
37895;SDS011;23733;53.254;10.430;2023-12-20T08:16:42;20.93;;;3.40;;
37895;SDS011;23733;53.254;10.430;2023-12-20T08:19:08;16.57;;;3.43;;
37895;SDS011;23733;53.254;10.430;2023-12-20T08:21:34;17.23;;;3.93;;
37895;SDS011;23733;53.254;10.430;2023-12-20T08:24:01;14.67;;;3.30;;
37895;SDS011;23733;53.254;10.430;2023-12-20T08:26:28;23.20;;;4.10;;
37895;SDS011;23733;53.254;10.430;2023-12-20T08:28:54;10.60;;;2.83;;
37895;SDS011;23733;53.254;10.430;2023-12-20T08:31:20;20.37;;;3.50;;
37895;SDS011;23733;53.254;10.430;2023-12-20T08:33:47;18.60;;;2.90;;
37895;SDS011;23733;53.254;10.430;2023-12-20T08:36:14;20.00;;;3.80;;
37895;SDS011;23733;53.254;10.430;2023-12-20T08:38:43;18.63;;;3.73;;
37895;SDS011;23733;53.254;10.430;2023-12-20T08:41:09;16.80;;;3.60;;
37895;SDS011;23733;53.254;10.430;2023-12-20T08:43:35;15.10;;;3.00;;
37895;SDS011;23733;53.254;10.430;2023-12-20T08:46:02;16.03;;;3.67;;
37895;SDS011;23733;53.254;10.430;2023-12-20T08:48:28;19.40;;;3.03;;
37895;SDS011;23733;53.254;10.430;2023-12-20T08:50:54;16.77;;;3.57;;
37895;SDS011;23733;53.254;10.430;2023-12-20T08:53:21;14.80;;;3.37;;
37895;SDS011;23733;53.254;10.430;2023-12-20T08:55:47;17.30;;;4.03;;
37895;SDS011;23733;53.254;10.430;2023-12-20T08:58:14;14.33;;;2.70;;
37895;SDS011;23733;53.254;10.430;2023-12-20T09:00:40;14.10;;;3.10;;
37895;SDS011;23733;53.254;10.430;2023-12-20T09:03:06;14.57;;;3.10;;
37895;SDS011;23733;53.254;10.430;2023-12-20T09:05:33;14.93;;;3.43;;
37895;SDS011;23733;53.254;10.430;2023-12-20T09:07:59;12.97;;;3.33;;
37895;SDS011;23733;53.254;10.430;2023-12-20T09:10:26;18.80;;;3.30;;
37895;SDS011;23733;53.254;10.430;2023-12-20T09:12:52;14.30;;;3.17;;
37895;SDS011;23733;53.254;10.430;2023-12-20T09:15:26;10.97;;;3.33;;
37895;SDS011;23733;53.254;10.430;2023-12-20T09:17:52;13.80;;;2.97;;
37895;SDS011;23733;53.254;10.430;2023-12-20T09:20:19;12.57;;;3.10;;
37895;SDS011;23733;53.254;10.430;2023-12-20T09:22:46;10.40;;;3.60;;
37895;SDS011;23733;53.254;10.430;2023-12-20T09:25:12;10.10;;;2.67;;
37895;SDS011;23733;53.254;10.430;2023-12-20T09:27:40;8.33;;;2.67;;
37895;SDS011;23733;53.254;10.430;2023-12-20T09:30:06;11.97;;;2.60;;
37895;SDS011;23733;53.254;10.430;2023-12-20T09:32:33;13.70;;;3.10;;
37895;SDS011;23733;53.254;10.430;2023-12-20T09:34:59;13.07;;;3.27;;
37895;SDS011;23733;53.254;10.430;2023-12-20T09:37:26;12.47;;;2.90;;
37895;SDS011;23733;53.254;10.430;2023-12-20T09:39:53;13.50;;;3.53;;
37895;SDS011;23733;53.254;10.430;2023-12-20T09:43:20;13.20;;;3.47;;
37895;SDS011;23733;53.254;10.430;2023-12-20T09:45:15;14.10;;;3.47;;
37895;SDS011;23733;53.254;10.430;2023-12-20T09:47:43;15.87;;;3.83;;
37895;SDS011;23733;53.254;10.430;2023-12-20T09:50:10;16.97;;;3.63;;
37895;SDS011;23733;53.254;10.430;2023-12-20T09:52:37;14.27;;;3.50;;
37895;SDS011;23733;53.254;10.430;2023-12-20T09:55:05;17.17;;;4.00;;
37895;SDS011;23733;53.254;10.430;2023-12-20T09:57:33;11.73;;;3.43;;
37895;SDS011;23733;53.254;10.430;2023-12-20T09:59:59;12.47;;;3.20;;
37895;SDS011;23733;53.254;10.430;2023-12-20T10:02:26;14.37;;;3.27;;
37895;SDS011;23733;53.254;10.430;2023-12-20T10:04:54;22.97;;;4.00;;
37895;SDS011;23733;53.254;10.430;2023-12-20T10:07:20;8.10;;;1.87;;
37895;SDS011;23733;53.254;10.430;2023-12-20T10:09:51;6.60;;;1.50;;
37895;SDS011;23733;53.254;10.430;2023-12-20T10:12:21;4.70;;;1.30;;
37895;SDS011;23733;53.254;10.430;2023-12-20T10:14:47;4.90;;;1.37;;
37895;SDS011;23733;53.254;10.430;2023-12-20T10:17:14;8.00;;;1.70;;
37895;SDS011;23733;53.254;10.430;2023-12-20T10:19:40;5.00;;;1.40;;
37895;SDS011;23733;53.254;10.430;2023-12-20T10:22:08;5.10;;;1.30;;
37895;SDS011;23733;53.254;10.430;2023-12-20T10:24:36;6.47;;;1.40;;
37895;SDS011;23733;53.254;10.430;2023-12-20T10:27:03;5.23;;;1.40;;
37895;SDS011;23733;53.254;10.430;2023-12-20T10:29:36;5.90;;;1.37;;
37895;SDS011;23733;53.254;10.430;2023-12-20T10:32:21;2.83;;;1.23;;
37895;SDS011;23733;53.254;10.430;2023-12-20T10:34:49;6.87;;;1.30;;
37895;SDS011;23733;53.254;10.430;2023-12-20T10:37:15;3.80;;;0.93;;
37895;SDS011;23733;53.254;10.430;2023-12-20T10:39:42;2.67;;;0.83;;
37895;SDS011;23733;53.254;10.430;2023-12-20T10:42:11;3.73;;;1.10;;
37895;SDS011;23733;53.254;10.430;2023-12-20T10:44:38;2.80;;;1.30;;
37895;SDS011;23733;53.254;10.430;2023-12-20T10:47:04;2.27;;;1.10;;
37895;SDS011;23733;53.254;10.430;2023-12-20T10:49:31;2.50;;;0.83;;
37895;SDS011;23733;53.254;10.430;2023-12-20T10:51:58;2.60;;;0.93;;
37895;SDS011;23733;53.254;10.430;2023-12-20T10:54:25;2.20;;;0.80;;
37895;SDS011;23733;53.254;10.430;2023-12-20T10:56:52;2.73;;;0.83;;
37895;SDS011;23733;53.254;10.430;2023-12-20T10:59:19;4.13;;;0.90;;
37895;SDS011;23733;53.254;10.430;2023-12-20T11:01:47;1.70;;;0.80;;
37895;SDS011;23733;53.254;10.430;2023-12-20T11:04:15;2.87;;;1.00;;
37895;SDS011;23733;53.254;10.430;2023-12-20T11:06:49;2.23;;;0.70;;
37895;SDS011;23733;53.254;10.430;2023-12-20T11:09:22;2.20;;;1.10;;
37895;SDS011;23733;53.254;10.430;2023-12-20T11:12:09;2.47;;;0.70;;
37895;SDS011;23733;53.254;10.430;2023-12-20T11:14:46;1.60;;;0.60;;
37895;SDS011;23733;53.254;10.430;2023-12-20T11:17:13;3.37;;;0.83;;
37895;SDS011;23733;53.254;10.430;2023-12-20T11:22:24;1.23;;;0.63;;
37895;SDS011;23733;53.254;10.430;2023-12-20T11:24:51;4.00;;;0.90;;
37895;SDS011;23733;53.254;10.430;2023-12-20T11:27:18;3.53;;;1.00;;
37895;SDS011;23733;53.254;10.430;2023-12-20T11:29:51;3.03;;;0.90;;
37895;SDS011;23733;53.254;10.430;2023-12-20T11:37:38;3.97;;;1.20;;
37895;SDS011;23733;53.254;10.430;2023-12-20T11:40:08;7.73;;;1.33;;
37895;SDS011;23733;53.254;10.430;2023-12-20T11:42:37;4.67;;;1.27;;
37895;SDS011;23733;53.254;10.430;2023-12-20T11:45:08;5.27;;;1.30;;
37895;SDS011;23733;53.254;10.430;2023-12-20T11:47:34;3.60;;;1.10;;
37895;SDS011;23733;53.254;10.430;2023-12-20T11:50:01;4.67;;;1.10;;
37895;SDS011;23733;53.254;10.430;2023-12-20T11:52:29;9.33;;;1.50;;
37895;SDS011;23733;53.254;10.430;2023-12-20T11:54:56;4.50;;;1.10;;
37895;SDS011;23733;53.254;10.430;2023-12-20T11:57:23;5.17;;;1.40;;
37895;SDS011;23733;53.254;10.430;2023-12-20T11:59:49;8.23;;;1.40;;
37895;SDS011;23733;53.254;10.430;2023-12-20T12:02:16;4.43;;;1.20;;
37895;SDS011;23733;53.254;10.430;2023-12-20T12:04:42;7.43;;;1.10;;
37895;SDS011;23733;53.254;10.430;2023-12-20T12:07:08;5.40;;;1.50;;
37895;SDS011;23733;53.254;10.430;2023-12-20T12:09:34;6.17;;;1.30;;
37895;SDS011;23733;53.254;10.430;2023-12-20T12:12:01;5.60;;;1.30;;
37895;SDS011;23733;53.254;10.430;2023-12-20T12:14:28;9.43;;;1.63;;
37895;SDS011;23733;53.254;10.430;2023-12-20T12:16:54;6.20;;;1.43;;
37895;SDS011;23733;53.254;10.430;2023-12-20T12:19:21;6.07;;;1.47;;
37895;SDS011;23733;53.254;10.430;2023-12-20T12:21:47;8.53;;;1.30;;
37895;SDS011;23733;53.254;10.430;2023-12-20T12:24:14;4.43;;;1.40;;
37895;SDS011;23733;53.254;10.430;2023-12-20T12:26:40;7.90;;;1.33;;
37895;SDS011;23733;53.254;10.430;2023-12-20T12:29:09;10.33;;;1.50;;
37895;SDS011;23733;53.254;10.430;2023-12-20T12:31:36;5.47;;;1.60;;
37895;SDS011;23733;53.254;10.430;2023-12-20T12:34:02;9.93;;;1.87;;
37895;SDS011;23733;53.254;10.430;2023-12-20T12:36:29;6.33;;;1.50;;
37895;SDS011;23733;53.254;10.430;2023-12-20T12:38:56;9.73;;;2.23;;
37895;SDS011;23733;53.254;10.430;2023-12-20T12:41:23;4.90;;;1.67;;
37895;SDS011;23733;53.254;10.430;2023-12-20T12:43:49;9.53;;;1.70;;
37895;SDS011;23733;53.254;10.430;2023-12-20T12:46:17;8.67;;;1.83;;
37895;SDS011;23733;53.254;10.430;2023-12-20T12:48:43;7.57;;;1.33;;
37895;SDS011;23733;53.254;10.430;2023-12-20T12:51:10;8.17;;;1.70;;
37895;SDS011;23733;53.254;10.430;2023-12-20T12:53:39;9.60;;;1.83;;
37895;SDS011;23733;53.254;10.430;2023-12-20T12:56:05;7.57;;;1.70;;
37895;SDS011;23733;53.254;10.430;2023-12-20T12:58:32;6.40;;;1.47;;
37895;SDS011;23733;53.254;10.430;2023-12-20T13:00:58;8.00;;;1.37;;
37895;SDS011;23733;53.254;10.430;2023-12-20T13:03:25;8.20;;;1.87;;
37895;SDS011;23733;53.254;10.430;2023-12-20T13:05:51;9.13;;;1.67;;
37895;SDS011;23733;53.254;10.430;2023-12-20T13:08:17;5.00;;;1.27;;
37895;SDS011;23733;53.254;10.430;2023-12-20T13:10:44;8.03;;;1.70;;
37895;SDS011;23733;53.254;10.430;2023-12-20T13:13:10;4.40;;;1.40;;
37895;SDS011;23733;53.254;10.430;2023-12-20T13:15:36;9.77;;;1.97;;
37895;SDS011;23733;53.254;10.430;2023-12-20T13:18:03;3.90;;;1.20;;
37895;SDS011;23733;53.254;10.430;2023-12-20T13:20:31;4.43;;;1.23;;
37895;SDS011;23733;53.254;10.430;2023-12-20T13:22:57;5.30;;;1.00;;
37895;SDS011;23733;53.254;10.430;2023-12-20T13:25:23;6.57;;;1.50;;
37895;SDS011;23733;53.254;10.430;2023-12-20T13:27:49;6.60;;;1.63;;
37895;SDS011;23733;53.254;10.430;2023-12-20T13:30:16;5.63;;;1.10;;
37895;SDS011;23733;53.254;10.430;2023-12-20T13:32:43;7.47;;;1.40;;
37895;SDS011;23733;53.254;10.430;2023-12-20T13:35:10;10.43;;;1.40;;
37895;SDS011;23733;53.254;10.430;2023-12-20T13:37:37;5.33;;;1.27;;
37895;SDS011;23733;53.254;10.430;2023-12-20T13:40:05;10.90;;;1.97;;
37895;SDS011;23733;53.254;10.430;2023-12-20T13:42:31;7.23;;;1.67;;
37895;SDS011;23733;53.254;10.430;2023-12-20T13:44:57;13.27;;;2.07;;
37895;SDS011;23733;53.254;10.430;2023-12-20T13:47:24;8.07;;;1.43;;
37895;SDS011;23733;53.254;10.430;2023-12-20T13:49:50;10.40;;;2.33;;
37895;SDS011;23733;53.254;10.430;2023-12-20T13:52:16;11.80;;;2.10;;
37895;SDS011;23733;53.254;10.430;2023-12-20T13:54:44;12.30;;;2.03;;
37895;SDS011;23733;53.254;10.430;2023-12-20T13:57:10;5.20;;;1.70;;
37895;SDS011;23733;53.254;10.430;2023-12-20T13:59:36;11.73;;;2.10;;
37895;SDS011;23733;53.254;10.430;2023-12-20T14:02:02;10.00;;;2.43;;
37895;SDS011;23733;53.254;10.430;2023-12-20T14:04:29;16.40;;;2.60;;
37895;SDS011;23733;53.254;10.430;2023-12-20T14:06:56;12.83;;;2.40;;
37895;SDS011;23733;53.254;10.430;2023-12-20T14:09:23;10.57;;;2.60;;
37895;SDS011;23733;53.254;10.430;2023-12-20T14:11:49;15.03;;;3.33;;
37895;SDS011;23733;53.254;10.430;2023-12-20T14:14:15;14.17;;;2.60;;
37895;SDS011;23733;53.254;10.430;2023-12-20T14:16:41;13.00;;;2.77;;
37895;SDS011;23733;53.254;10.430;2023-12-20T14:19:10;8.33;;;2.47;;
37895;SDS011;23733;53.254;10.430;2023-12-20T14:21:37;15.63;;;2.20;;
37895;SDS011;23733;53.254;10.430;2023-12-20T14:24:03;12.40;;;2.93;;
37895;SDS011;23733;53.254;10.430;2023-12-20T14:26:30;15.10;;;3.00;;
37895;SDS011;23733;53.254;10.430;2023-12-20T14:28:57;14.20;;;2.70;;
37895;SDS011;23733;53.254;10.430;2023-12-20T14:31:23;13.80;;;2.50;;